createdAt,value
2022-12-22T00:00:07.196Z,3.70
2022-12-22T00:01:36.583Z,3.54
2022-12-22T00:03:05.487Z,3.53
2022-12-22T00:04:34.019Z,3.52
2022-12-22T00:06:00.868Z,3.50
2022-12-22T00:07:27.658Z,3.39
2022-12-22T00:08:57.913Z,3.33
2022-12-22T00:10:25.050Z,3.29
2022-12-22T00:13:29.650Z,3.45
2022-12-22T00:14:58.055Z,3.33
2022-12-22T00:16:27.654Z,3.35
2022-12-22T00:17:55.410Z,3.36
2022-12-22T00:19:26.137Z,3.35
2022-12-22T00:20:53.346Z,3.39
2022-12-22T00:22:28.094Z,3.41
2022-12-22T00:23:55.455Z,3.43
2022-12-22T00:26:58.120Z,3.51
2022-12-22T00:28:30.091Z,3.44
2022-12-22T00:30:00.359Z,3.42
2022-12-22T00:31:28.850Z,3.37
2022-12-22T00:32:57.582Z,3.36
2022-12-22T00:34:35.348Z,3.38
2022-12-22T00:36:03.256Z,3.40
2022-12-22T00:37:32.047Z,3.46
2022-12-22T00:38:59.672Z,3.44
2022-12-22T00:40:37.424Z,3.32
2022-12-22T00:42:04.740Z,3.28
2022-12-22T00:43:32.409Z,3.28
2022-12-22T00:45:01.117Z,3.33
2022-12-22T00:46:32.074Z,3.37
2022-12-22T00:47:59.830Z,3.42
2022-12-22T00:49:27.248Z,3.46
2022-12-22T00:50:55.082Z,3.50
2022-12-22T00:53:57.507Z,3.53
2022-12-22T00:55:33.934Z,3.42
2022-12-22T00:57:02.186Z,3.40
2022-12-22T00:58:35.432Z,3.36
2022-12-22T01:00:04.377Z,3.36
2022-12-22T01:01:31.652Z,3.27
2022-12-22T01:02:59.379Z,3.23
2022-12-22T01:04:29.953Z,3.06
2022-12-22T01:05:59.468Z,3.02
2022-12-22T01:07:39.106Z,3.01
2022-12-22T01:09:07.588Z,3.05
2022-12-22T01:10:35.402Z,3.07
2022-12-22T01:12:03.431Z,3.13
2022-12-22T01:13:32.841Z,3.19
2022-12-22T01:15:01.932Z,3.22
2022-12-22T01:16:33.379Z,3.26
2022-12-22T01:18:00.706Z,3.26
2022-12-22T01:19:28.032Z,3.28
2022-12-22T01:20:57.049Z,3.22
2022-12-22T01:22:31.269Z,3.21
2022-12-22T01:23:58.953Z,3.22
2022-12-22T01:25:32.922Z,3.24
2022-12-22T01:27:01.060Z,3.28
2022-12-22T01:28:36.424Z,3.29
2022-12-22T01:30:05.980Z,3.28
2022-12-22T01:31:39.917Z,3.32
2022-12-22T01:33:07.198Z,3.36
2022-12-22T01:36:16.499Z,3.50
2022-12-22T01:37:43.311Z,3.45
2022-12-22T01:39:11.443Z,3.47
2022-12-22T01:40:42.286Z,3.48
2022-12-22T01:42:10.174Z,3.47
2022-12-22T01:43:46.314Z,3.46
2022-12-22T01:45:14.689Z,3.42
2022-12-22T01:46:52.656Z,3.35
2022-12-22T01:48:19.972Z,3.31
2022-12-22T01:49:53.844Z,3.24
2022-12-22T01:51:25.111Z,3.19
2022-12-22T01:52:54.591Z,3.14
2022-12-22T01:54:22.593Z,3.12
2022-12-22T01:55:49.807Z,3.11
2022-12-22T01:57:20.221Z,3.09
2022-12-22T01:58:51.552Z,3.06
2022-12-22T02:00:19.614Z,3.07
2022-12-22T02:01:50.805Z,3.04
2022-12-22T02:03:19.859Z,3.02
2022-12-22T02:04:58.934Z,3.02
2022-12-22T02:06:59.810Z,3.01
2022-12-22T02:08:45.046Z,2.99
2022-12-22T02:10:31.759Z,3.06
2022-12-22T02:13:46.205Z,3.17
2022-12-22T02:15:24.676Z,3.07
2022-12-22T02:16:59.447Z,3.07
2022-12-22T02:18:48.997Z,3.02
2022-12-22T06:14:22.679Z,1.72
2022-12-22T06:15:32.669Z,1.70
2022-12-22T06:16:41.375Z,1.78
2022-12-22T06:17:51.146Z,1.86
2022-12-22T06:19:00.352Z,1.92
2022-12-22T06:20:10.909Z,2.10
2022-12-22T06:21:20.462Z,2.24
2022-12-22T06:22:29.925Z,2.36
2022-12-22T06:23:38.475Z,2.56
2022-12-22T06:24:47.300Z,2.65
2022-12-22T06:25:58.460Z,2.85
2022-12-22T06:28:22.364Z,3.35
2022-12-22T06:29:31.574Z,3.40
2022-12-22T06:30:41.293Z,3.54
2022-12-22T06:33:05.890Z,3.90
2022-12-22T06:34:16.916Z,3.86
2022-12-22T06:35:25.536Z,3.98
2022-12-22T06:36:34.822Z,4.09
2022-12-22T06:37:43.688Z,4.02
2022-12-22T06:40:08.970Z,4.12
2022-12-22T06:41:21.295Z,3.97
2022-12-22T06:42:49.601Z,3.87
2022-12-22T06:43:59.420Z,3.78
2022-12-22T06:45:10.276Z,3.71
2022-12-22T06:46:27.215Z,3.67
2022-12-22T06:47:36.817Z,3.64
2022-12-22T06:48:45.655Z,3.66
2022-12-22T06:49:54.512Z,3.67
2022-12-22T06:51:05.583Z,3.67
2022-12-22T06:52:14.585Z,3.63
2022-12-22T06:53:24.164Z,3.60
2022-12-22T06:54:33.030Z,3.57
2022-12-22T06:56:57.338Z,3.66
2022-12-22T06:58:07.303Z,3.51
2022-12-22T06:59:16.546Z,3.44
2022-12-22T07:01:43.444Z,3.52
2022-12-22T07:02:52.912Z,3.36
2022-12-22T07:04:03.131Z,3.28
2022-12-22T07:05:13.589Z,3.05
2022-12-22T07:06:22.918Z,3.00
2022-12-22T07:07:31.579Z,2.98
2022-12-22T07:08:40.091Z,2.91
2022-12-22T07:09:48.607Z,2.67
2022-12-22T07:12:12.851Z,2.67
2022-12-22T07:13:23.361Z,2.52
2022-12-22T07:14:32.358Z,2.42
2022-12-22T07:16:57.834Z,2.64
2022-12-22T07:18:06.462Z,2.54
2022-12-22T07:19:14.952Z,2.77
2022-12-22T07:20:24.825Z,2.86
2022-12-22T07:21:33.731Z,2.87
2022-12-22T07:22:42.247Z,2.92
2022-12-22T07:23:51.364Z,3.03
2022-12-22T07:25:00.495Z,3.11
2022-12-22T07:26:11.356Z,3.14
2022-12-22T07:27:21.049Z,3.14
2022-12-22T07:28:34.124Z,3.05
2022-12-22T07:29:42.798Z,3.05
2022-12-22T07:30:58.636Z,3.04
2022-12-22T07:32:08.914Z,2.96
2022-12-22T07:34:34.092Z,3.12
2022-12-22T07:36:58.709Z,3.14
2022-12-22T07:38:12.466Z,3.12
2022-12-22T07:39:22.185Z,3.26
2022-12-22T07:42:05.579Z,3.74
2022-12-22T07:43:14.890Z,3.80
2022-12-22T07:45:39.072Z,4.26
2022-12-22T07:46:48.192Z,4.19
2022-12-22T07:48:02.879Z,4.20
2022-12-22T07:49:30.767Z,4.16
2022-12-22T07:50:40.388Z,4.12
2022-12-22T07:51:49.640Z,4.10
2022-12-22T07:53:01.878Z,4.12
2022-12-22T07:54:13.520Z,4.01
2022-12-22T07:55:23.944Z,3.91
2022-12-22T07:56:33.850Z,3.82
2022-12-22T07:57:43.396Z,3.68
2022-12-22T07:58:52.530Z,3.68
2022-12-22T08:00:01.874Z,3.62
2022-12-22T08:02:56.260Z,3.36
2022-12-22T08:04:05.114Z,3.33
2022-12-22T08:06:33.589Z,3.35
2022-12-22T08:07:42.634Z,3.07
2022-12-22T08:08:53.092Z,3.14
2022-12-22T08:11:16.843Z,3.33
2022-12-22T08:12:25.880Z,3.20
2022-12-22T08:13:35.964Z,3.20
2022-12-22T08:16:10.919Z,3.20
2022-12-22T08:17:19.822Z,3.10
2022-12-22T08:19:46.081Z,3.19
2022-12-22T08:20:55.811Z,3.11
2022-12-22T08:22:04.389Z,3.19
2022-12-22T08:24:29.777Z,3.47
2022-12-22T08:25:41.093Z,3.43
2022-12-22T08:26:54.104Z,3.49
2022-12-22T08:28:04.771Z,3.52
2022-12-22T08:30:46.015Z,3.74
2022-12-22T08:31:57.828Z,3.70
2022-12-22T08:33:06.960Z,3.74
2022-12-22T08:34:16.282Z,3.75
2022-12-22T08:35:25.061Z,3.75
2022-12-22T08:37:53.635Z,3.93
2022-12-22T08:39:03.236Z,3.87
2022-12-22T08:41:50.412Z,4.07
2022-12-22T08:43:01.679Z,3.99
2022-12-22T08:44:11.283Z,3.98
2022-12-22T08:46:35.219Z,4.10
2022-12-22T08:47:43.910Z,4.00
2022-12-22T08:48:54.823Z,4.00
2022-12-22T08:50:04.025Z,4.00
2022-12-22T08:52:28.446Z,4.21
2022-12-22T08:54:03.948Z,4.14
2022-12-22T08:56:05.119Z,4.24
2022-12-22T08:57:13.533Z,4.17
2022-12-22T08:58:22.935Z,4.20
2022-12-22T08:59:32.388Z,4.24
2022-12-22T09:01:56.944Z,4.43
2022-12-22T09:03:05.682Z,4.38
2022-12-22T09:05:33.953Z,4.44
2022-12-22T09:06:43.989Z,4.33
2022-12-22T09:07:52.688Z,4.34
2022-12-22T09:09:05.633Z,4.38
2022-12-22T09:10:16.219Z,4.38
2022-12-22T09:12:47.819Z,4.58
2022-12-22T09:14:00.486Z,4.50
2022-12-22T09:15:10.267Z,4.48
2022-12-22T09:16:20.905Z,4.48
2022-12-22T09:17:30.339Z,4.48
2022-12-22T09:18:39.541Z,4.52
2022-12-22T09:19:48.676Z,4.52
2022-12-22T09:20:59.669Z,4.52
2022-12-22T09:22:09.034Z,4.51
2022-12-22T09:23:18.368Z,4.51
2022-12-22T09:24:28.137Z,4.55
2022-12-22T09:25:36.676Z,4.57
2022-12-22T09:28:01.455Z,4.69
2022-12-22T09:29:11.366Z,4.59
2022-12-22T09:31:44.640Z,4.73
2022-12-22T09:32:55.315Z,4.65
2022-12-22T09:34:04.446Z,4.63
2022-12-22T09:35:14.835Z,4.59
2022-12-22T09:36:26.999Z,4.59
2022-12-22T09:37:37.153Z,4.63
2022-12-22T09:40:09.333Z,4.70
2022-12-22T09:41:31.524Z,4.62
2022-12-22T09:42:41.139Z,4.64
2022-12-22T09:45:11.117Z,4.79
2022-12-22T09:47:41.296Z,4.86
2022-12-22T09:50:08.726Z,4.86
2022-12-22T09:52:39.415Z,4.73
2022-12-22T09:55:26.062Z,4.87
2022-12-22T09:56:35.801Z,4.77
2022-12-22T09:57:45.512Z,4.68
2022-12-22T09:58:56.548Z,4.66
2022-12-22T10:00:16.041Z,4.67
2022-12-22T10:01:52.035Z,4.72
2022-12-22T10:04:55.029Z,4.87
2022-12-22T10:06:23.244Z,4.80
2022-12-22T10:07:35.983Z,4.82
2022-12-22T10:08:44.724Z,4.83
2022-12-22T10:11:15.957Z,4.83
2022-12-22T10:12:26.205Z,4.71
2022-12-22T10:14:53.991Z,4.80
2022-12-22T10:16:22.209Z,4.59
2022-12-22T10:17:38.935Z,4.46
2022-12-22T10:19:03.539Z,4.49
2022-12-22T10:21:46.938Z,4.42
2022-12-22T10:23:01.702Z,4.33
2022-12-22T10:24:29.987Z,4.21
2022-12-22T10:27:21.987Z,4.25
2022-12-22T10:28:37.961Z,4.12
2022-12-22T10:29:46.708Z,3.95
2022-12-22T10:31:17.831Z,3.95
2022-12-22T10:32:28.287Z,3.97
2022-12-22T10:33:45.889Z,3.97
2022-12-22T10:35:03.821Z,3.94
2022-12-22T10:36:14.987Z,3.83
2022-12-22T10:38:59.869Z,4.07
2022-12-22T10:40:22.032Z,4.00
2022-12-22T10:41:44.384Z,4.02
2022-12-22T10:42:55.499Z,4.08
2022-12-22T10:44:11.480Z,4.10
2022-12-22T10:45:23.412Z,4.06
2022-12-22T10:46:40.759Z,3.97
2022-12-22T10:50:27.327Z,4.15
2022-12-22T10:51:36.252Z,4.02
2022-12-22T10:52:55.048Z,4.03
2022-12-22T10:55:22.620Z,4.23
2022-12-22T10:56:33.646Z,4.13
2022-12-22T10:57:43.297Z,4.12
2022-12-22T11:00:31.821Z,4.29
2022-12-22T11:01:40.906Z,4.17
2022-12-22T11:02:56.587Z,4.18
2022-12-22T11:04:25.754Z,4.14
2022-12-22T11:05:35.916Z,4.16
2022-12-22T11:06:45.832Z,4.22
2022-12-22T11:07:56.404Z,4.23
2022-12-22T11:09:31.979Z,4.27
2022-12-22T11:12:23.415Z,4.29
2022-12-22T11:13:53.787Z,4.16
2022-12-22T11:15:27.023Z,4.16
2022-12-22T11:17:00.251Z,4.03
2022-12-22T11:20:03.595Z,4.16
2022-12-22T11:21:33.745Z,4.05
2022-12-22T11:24:22.196Z,4.07
2022-12-22T11:25:57.562Z,4.04
2022-12-22T11:27:42.343Z,4.10
2022-12-22T11:28:53.122Z,4.16
2022-12-22T11:30:12.892Z,4.22
2022-12-22T11:31:38.399Z,4.25
2022-12-22T11:32:59.536Z,4.31
2022-12-22T11:34:42.676Z,4.33
2022-12-22T11:36:10.149Z,4.38
2022-12-22T11:37:48.721Z,4.43
2022-12-22T11:39:07.427Z,4.50
2022-12-22T11:40:20.345Z,4.59
2022-12-22T11:43:16.669Z,4.83
2022-12-22T11:45:57.443Z,4.87
2022-12-22T11:47:28.868Z,4.79
2022-12-22T11:49:07.901Z,4.81
2022-12-22T11:52:09.957Z,4.91
2022-12-22T11:53:46.107Z,4.81
2022-12-22T11:56:44.416Z,4.91
2022-12-22T11:58:15.422Z,4.83
2022-12-22T12:01:41.085Z,5.01
2022-12-22T12:03:16.402Z,4.94
2022-12-22T12:06:22.159Z,5.12
2022-12-22T12:10:22.552Z,4.96
2022-12-22T12:13:38.713Z,4.66
2022-12-22T12:15:26.216Z,4.53
2022-12-22T12:16:55.777Z,4.50
2022-12-22T12:21:23.981Z,4.49
2022-12-22T12:24:29.947Z,4.37
2022-12-22T12:29:07.605Z,4.18
2022-12-22T12:31:34.398Z,3.97
2022-12-22T12:34:23.240Z,4.05
2022-12-22T12:37:10.634Z,4.12
2022-12-22T12:40:18.063Z,4.02
2022-12-22T12:41:43.279Z,4.09
2022-12-22T12:42:53.949Z,4.14
2022-12-22T12:44:05.248Z,4.19
2022-12-22T12:48:29.536Z,4.42
2022-12-22T12:51:01.705Z,4.47
2022-12-22T12:52:11.680Z,4.39
2022-12-22T12:53:23.216Z,4.40
2022-12-22T12:54:39.638Z,4.36
2022-12-22T12:55:58.299Z,4.40
2022-12-22T12:57:25.885Z,4.41
2022-12-22T13:00:00.001Z,4.55
2022-12-22T13:02:37.064Z,4.53
2022-12-22T13:04:03.238Z,4.44
2022-12-22T13:06:52.095Z,4.56
2022-12-22T13:09:51.231Z,4.55
2022-12-22T13:10:57.989Z,4.44
2022-12-22T13:12:40.793Z,4.47
2022-12-22T13:15:08.689Z,4.65
2022-12-22T13:16:23.498Z,4.57
2022-12-22T13:17:36.014Z,4.58
2022-12-22T13:18:50.815Z,4.53
2022-12-22T13:19:58.407Z,4.51
2022-12-22T13:21:52.448Z,4.48
2022-12-22T13:22:38.711Z,4.48
2022-12-22T13:25:17.071Z,4.61
2022-12-22T13:26:36.539Z,4.54
2022-12-22T13:27:47.150Z,4.57
2022-12-22T13:30:22.025Z,4.72
2022-12-22T13:33:08.627Z,4.77
2022-12-22T13:34:21.980Z,4.66
2022-12-22T13:35:47.150Z,4.65
2022-12-22T13:38:31.130Z,4.76
2022-12-22T13:39:39.824Z,4.63
2022-12-22T13:40:50.098Z,4.66
2022-12-22T13:41:59.039Z,4.67
2022-12-22T13:43:17.645Z,4.70
2022-12-22T13:44:32.930Z,4.71
2022-12-22T13:45:50.147Z,4.73
2022-12-22T13:48:30.209Z,4.85
2022-12-22T13:50:07.699Z,4.76
2022-12-22T13:50:57.041Z,4.78
2022-12-22T13:54:53.829Z,4.84
2022-12-22T13:57:23.667Z,4.96
2022-12-22T13:58:41.159Z,4.81
2022-12-22T13:59:53.506Z,4.81
2022-12-22T14:02:22.131Z,4.78
2022-12-22T14:05:08.835Z,4.87
2022-12-22T14:06:30.641Z,4.78
2022-12-22T14:07:39.966Z,4.76
2022-12-22T14:10:06.093Z,4.90
2022-12-22T14:11:15.489Z,4.80
2022-12-22T14:13:56.933Z,4.95
2022-12-22T14:15:10.046Z,4.87
2022-12-22T14:16:19.992Z,4.88
2022-12-22T14:17:32.202Z,4.86
2022-12-22T14:18:41.642Z,4.86
2022-12-22T14:19:56.431Z,4.80
2022-12-22T14:21:08.696Z,4.78
2022-12-22T14:23:43.264Z,4.91
2022-12-22T14:25:02.017Z,4.81
2022-12-22T14:27:47.968Z,5.00
2022-12-22T14:28:58.424Z,4.91
2022-12-22T14:30:24.362Z,4.87
2022-12-22T14:31:34.159Z,4.86
2022-12-22T14:32:55.386Z,4.86
2022-12-22T14:35:43.888Z,4.93
2022-12-22T14:36:53.994Z,4.82
2022-12-22T14:38:23.282Z,4.75
2022-12-22T14:40:54.627Z,4.78
2022-12-22T14:42:04.639Z,4.68
2022-12-22T14:46:09.308Z,4.75
2022-12-22T14:47:23.731Z,4.61
2022-12-22T14:51:20.207Z,4.77
2022-12-22T14:52:39.326Z,4.69
2022-12-22T14:53:55.376Z,4.74
2022-12-22T14:55:08.481Z,4.71
2022-12-22T14:57:36.449Z,4.77
2022-12-22T14:58:48.051Z,4.68
2022-12-22T15:02:50.219Z,4.80
2022-12-22T15:04:05.869Z,4.70
2022-12-22T15:07:24.132Z,4.88
2022-12-22T15:10:17.991Z,4.96
2022-12-22T15:11:18.392Z,4.81
2022-12-22T15:12:27.710Z,4.78
2022-12-22T15:14:52.366Z,4.91
2022-12-22T15:17:21.780Z,4.84
2022-12-22T15:18:33.838Z,4.75
2022-12-22T15:19:42.921Z,4.75
2022-12-22T15:22:07.827Z,4.87
2022-12-22T15:23:17.438Z,4.78
2022-12-22T15:24:26.822Z,4.80
2022-12-22T15:25:35.567Z,4.84
2022-12-22T15:28:01.009Z,4.97
2022-12-22T15:29:11.240Z,4.85
2022-12-22T15:30:28.656Z,4.87
2022-12-22T15:31:39.792Z,4.90
2022-12-22T15:32:48.913Z,4.95
2022-12-22T15:35:20.083Z,5.08
2022-12-22T15:36:29.649Z,5.00
2022-12-22T15:37:39.250Z,5.03
2022-12-22T15:38:48.299Z,5.04
2022-12-22T15:39:58.017Z,5.04
2022-12-22T15:42:23.681Z,5.16
2022-12-22T15:44:47.197Z,5.13
2022-12-22T15:45:57.031Z,5.00
2022-12-22T15:47:10.945Z,4.99
2022-12-22T15:48:28.952Z,4.95
2022-12-22T15:49:38.499Z,4.97
2022-12-22T15:52:03.915Z,5.12
2022-12-22T15:54:32.959Z,5.06
2022-12-22T15:55:46.578Z,4.95
2022-12-22T15:58:15.450Z,5.01
2022-12-22T16:00:44.559Z,4.99
2022-12-22T16:02:00.479Z,4.88
2022-12-22T16:04:21.681Z,4.97
2022-12-22T16:06:46.612Z,4.90
2022-12-22T16:07:56.090Z,4.76
2022-12-22T16:10:30.697Z,4.89
2022-12-22T16:11:40.565Z,4.83
2022-12-22T16:13:00.863Z,4.87
2022-12-22T16:14:12.862Z,4.90
2022-12-22T16:15:22.122Z,4.95
2022-12-22T16:17:47.031Z,5.11
2022-12-22T16:18:57.908Z,5.04
2022-12-22T16:20:07.260Z,5.06
2022-12-22T16:21:19.614Z,5.08
2022-12-22T16:23:50.473Z,5.19
2022-12-22T16:25:02.859Z,5.08
2022-12-22T16:26:19.199Z,5.08
2022-12-22T16:28:44.584Z,5.17
2022-12-22T16:29:54.099Z,5.07
2022-12-22T16:31:06.126Z,5.10
2022-12-22T16:32:18.766Z,5.08
2022-12-22T16:33:28.708Z,5.09
2022-12-22T16:34:37.487Z,5.08
2022-12-22T16:37:01.774Z,5.17
2022-12-22T16:38:18.001Z,4.97
2022-12-22T16:39:21.835Z,4.95
2022-12-22T16:40:33.097Z,4.88
2022-12-22T16:45:58.202Z,4.98
2022-12-22T16:47:23.682Z,4.86
2022-12-22T16:50:07.908Z,4.87
2022-12-22T16:52:52.612Z,4.72
2022-12-22T16:54:02.602Z,4.58
2022-12-22T16:55:17.436Z,4.61
2022-12-22T16:56:28.329Z,4.60
2022-12-22T16:57:37.435Z,4.64
2022-12-22T16:58:46.850Z,4.66
2022-12-22T16:59:55.871Z,4.68
2022-12-22T17:01:05.519Z,4.68
2022-12-22T17:03:42.619Z,4.79
2022-12-22T17:04:54.318Z,4.68
2022-12-22T17:06:05.099Z,4.65
2022-12-22T17:07:14.771Z,4.64
2022-12-22T17:09:46.647Z,4.67
2022-12-22T17:13:32.339Z,4.49
2022-12-22T17:14:41.368Z,4.37
2022-12-22T17:17:07.293Z,4.46
2022-12-22T17:18:19.125Z,4.35
2022-12-22T17:19:28.295Z,4.33
2022-12-22T17:20:37.862Z,4.31
2022-12-22T17:21:47.574Z,4.32
2022-12-22T17:23:02.198Z,4.31
2022-12-22T17:24:14.588Z,4.33
2022-12-22T17:25:30.932Z,4.37
2022-12-22T17:26:39.657Z,4.43
2022-12-22T17:27:48.566Z,4.44
2022-12-22T17:28:58.316Z,4.48
2022-12-22T17:31:27.395Z,4.53
2022-12-22T17:32:35.955Z,4.41
2022-12-22T17:33:44.600Z,4.41
2022-12-22T17:34:53.120Z,4.38
2022-12-22T17:36:03.403Z,4.39
2022-12-22T17:38:33.964Z,4.51
2022-12-22T17:39:45.206Z,4.42
2022-12-22T17:42:22.549Z,4.52
2022-12-22T17:43:31.886Z,4.43
2022-12-22T17:44:40.708Z,4.41
2022-12-22T17:45:50.356Z,4.37
2022-12-22T23:21:35.608Z,2.52
2022-12-22T23:24:01.014Z,2.73
2022-12-22T23:25:11.516Z,2.72
2022-12-22T23:27:35.552Z,3.18
2022-12-22T23:28:44.608Z,3.24
2022-12-22T23:29:53.277Z,3.36
2022-12-22T23:31:02.727Z,3.49
2022-12-22T23:32:11.925Z,3.68
2022-12-22T23:33:21.744Z,3.87
2022-12-22T23:34:32.080Z,4.01
2022-12-22T23:35:43.852Z,4.14
2022-12-22T23:36:54.009Z,4.24
2022-12-22T23:38:04.839Z,4.34
2022-12-22T23:39:14.685Z,4.47
2022-12-22T23:40:51.146Z,4.54
2022-12-22T23:41:37.294Z,4.59
2022-12-22T23:42:49.427Z,4.66
2022-12-22T23:43:57.464Z,4.74
2022-12-22T23:46:23.155Z,5.00
2022-12-22T23:48:54.348Z,5.17
2022-12-22T23:50:04.377Z,5.09
2022-12-22T23:51:13.325Z,5.20
2022-12-22T23:52:22.123Z,5.27
2022-12-22T23:53:31.249Z,5.35
2022-12-22T23:54:40.268Z,5.33
2022-12-22T23:57:05.112Z,5.38
2022-12-22T23:58:15.569Z,5.26
2022-12-22T23:59:24.473Z,5.24
